EGPM/SCS METAR and TAF weather

Enter ICAO airport designator
Station Type Date Time Source
EGPM METAR 2020/01/22 12:20 UTC NOAA

EGPM 221220Z 20014KT 3000 -RADZ BR FEW006 BKN017 08/07 Q1030


Station Type Date Time Source
EGPM Decoded METAR 2020/01/22 12:20 UTC NOAA

Scatsa / Shetland Island, United Kingdom (EGPM) 60-26N 001-18W
Jan 22, 2020 - 07:20 AM EST / 2020.01.22 1220 UTC
Wind: from the SSW (200 degrees) at 16 MPH (14 KT):0
Visibility: 1 mile(s):0
Sky conditions: mostly cloudy
Weather: light rain, drizzle; mist
Temperature: 46 F (8 C)
Dew Point: 44 F (7 C)
Relative Humidity: 93%
Pressure (altimeter): 30.42 in. Hg (1030 hPa)
ob: EGPM 221220Z 20014KT 3000 -RADZ BR FEW006 BKN017 08/07 Q1030
cycle: 12

Station Type Date Time Source
EGPM TAF 2013/04/29 03:39 UTC NOAA

TAF TAF EGPM 290337Z 2903/2915 22005KT 9999 SCT030 PROB30
TEMPO 2903/2906 7000 SHRAGS
BECMG 2906/2909 32015KT PROB40
TEMPO 2906/2915 6000 SHRA SHGS BKN012CB

Example: see airport list